Time;durP1;ratioP1;P1;durP2;ratioP2;P2;SDS_P1;SDS_P2;PMS_P1;PMS_P2;Temp;Humidity;BMP_temperature;BMP_pressure;BME280_temperature;BME280_humidity;BME280_pressure;Samples;Min_cycle;Max_cycle;Signal;HPM_P1;HPM_P2
2023/04/10 00:01:45;;;;;;;;;;;;;;;;;;;;;
2023/04/10 00:04:55;;;;;;;;;14.00;11.75;;;;;13.35;63.75;100979.31;146629;685;45013;-79
2023/04/10 00:08:02;;;;;;;;;12.00;11.75;;;;;12.99;65.07;100929.06;146632;588;45020;-80
2023/04/10 00:11:03;;;;;;;;;13.75;10.25;;;;;13.25;64.89;100977.13;146630;615;46916;-79
2023/04/10 00:14:13;;;;;;;;;;;;;;;;;;;;;
2023/04/10 00:17:20;;;;;;;;;13.50;11.25;;;;;13.15;66.09;100969.69;146632;564;45914;-77
2023/04/10 00:20:21;;;;;;;;;8.25;7.00;;;;;13.09;64.99;100965.09;146634;566;45020;-75
2023/04/10 00:23:23;;;;;;;;;9.75;8.75;;;;;13.02;65.03;100959.53;146633;661;45027;-74
2023/04/10 00:26:27;;;;;;;;;10.75;7.50;;;;;12.95;65.39;100959.25;146631;566;46010;-74
2023/04/10 00:29:20;;;;;;;;;8.00;6.75;;;;;12.87;65.62;100957.16;146633;675;45916;-75
2023/04/10 00:32:24;;;;;;;;;8.50;7.00;;;;;12.82;64.95;100954.31;146634;656;45020;-75
2023/04/10 00:35:31;;;;;;;;;10.25;9.00;;;;;12.81;65.57;100947.34;146628;633;46016;-76
2023/04/10 00:38:43;;;;;;;;;10.75;8.50;;;;;12.76;65.24;100950.56;146626;632;46014;-75
2023/04/10 00:41:42;;;;;;;;;9.00;7.75;;;;;12.76;65.06;100947.94;146620;643;46012;-75
2023/04/10 00:44:49;;;;;;;;;10.00;7.75;;;;;9.91;64.60;100457.53;146621;573;46014;-76
2023/04/10 00:48:01;;;;;;;;;9.75;7.75;;;;;12.72;64.59;100952.13;146621;650;46013;-74
2023/04/10 00:50:57;;;;;;;;;9.25;8.25;;;;;12.63;65.26;100947.38;146616;670;45020;-74
2023/04/10 00:53:55;;;;;;;;;8.75;7.00;;;;;12.56;65.33;100940.12;146622;594;45029;-74
2023/04/10 00:57:00;;;;;;;;;8.00;7.75;;;;;12.48;65.86;100938.87;146608;584;46021;-73
2023/04/10 01:00:16;;;;;;;;;7.00;7.00;;;;;12.39;66.33;100934.12;146616;580;46016;-74
2023/04/10 01:03:26;;;;;;;;;8.75;8.00;;;;;8.96;65.98;100341.47;146621;712;46014;-76
2023/04/10 01:07:13;;;;;;;;;14.25;10.00;;;;;12.18;65.77;100899.28;146621;602;46012;-76
2023/04/10 01:11:15;;;;;;;;;9.50;8.75;;;;;10.50;65.08;100609.00;146615;572;45021;-77
2023/04/10 01:14:55;;;;;;;;;;;;;;;;;;;;;
2023/04/10 01:18:19;;;;;;;;;13.50;12.25;;;;;10.04;64.89;100510.84;146619;582;45021;-76
2023/04/10 01:21:35;;;;;;;;;14.75;11.25;;;;;12.48;66.83;100931.94;146615;676;46016;-74
2023/04/10 01:25:05;;;;;;;;;12.50;10.50;;;;;9.57;64.56;100418.72;146618;686;45021;-75
2023/04/10 01:28:55;;;;;;;;;15.50;14.00;;;;;12.52;65.51;100925.16;146618;610;46016;-74
2023/04/10 01:32:25;;;;;;;;;12.75;11.25;;;;;12.53;65.93;100918.28;146609;580;46011;-74
2023/04/10 01:35:21;;;;;;;;;11.75;10.00;;;;;12.53;67.04;100923.50;146614;598;45016;-74
2023/04/10 01:38:15;;;;;;;;;16.25;13.50;;;;;12.52;67.75;100913.88;146619;671;46010;-76
2023/04/10 01:41:35;;;;;;;;;14.00;11.00;;;;;9.45;66.92;100400.88;146621;600;45016;-75
2023/04/10 01:44:52;;;;;;;;;12.00;11.00;;;;;12.48;67.67;100915.47;146623;577;46020;-76
2023/04/10 01:47:48;;;;;;;;;10.75;10.75;;;;;12.46;67.08;100912.81;146619;589;46013;-76
2023/04/10 01:50:54;;;;;;;;;12.00;12.00;;;;;12.53;67.53;100913.09;146625;606;46020;-75
2023/04/10 01:53:53;;;;;;;;;14.50;11.25;;;;;12.52;68.40;100901.75;146611;614;45017;-75
2023/04/10 01:56:56;;;;;;;;;13.00;12.00;;;;;12.49;68.33;100896.41;146619;570;46020;-70
2023/04/10 01:59:51;;;;;;;;;16.50;13.75;;;;;12.45;68.24;100905.78;146614;569;46016;-80
2023/04/10 02:02:45;;;;;;;;;16.50;15.00;;;;;12.45;67.95;100897.09;146619;584;45021;-76
2023/04/10 02:06:28;;;;;;;;;15.50;14.50;;;;;10.21;67.12;100506.47;146612;591;45016;-75
2023/04/10 02:09:37;;;;;;;;;14.50;13.50;;;;;12.48;66.97;100898.13;146615;659;46008;-77
2023/04/10 02:12:44;;;;;;;;;17.75;15.25;;;;;12.50;66.75;100897.34;146618;610;46012;-79
2023/04/10 02:15:56;;;;;;;;;16.00;12.25;;;;;12.53;66.88;100902.69;146618;591;45035;-75
2023/04/10 02:18:51;;;;;;;;;16.75;15.25;;;;;12.58;67.19;100906.38;146617;583;46915;-71
2023/04/10 02:21:50;;;;;;;;;14.75;14.25;;;;;12.59;66.91;100902.97;146624;611;45020;-72
2023/04/10 02:24:42;;;;;;;;;14.00;13.25;;;;;12.61;67.01;100907.38;146617;599;46013;-79
2023/04/10 02:27:56;;;;;;;;;17.50;14.75;;;;;12.62;67.14;100893.59;146624;584;45020;-78
2023/04/10 02:30:53;;;;;;;;;17.75;14.00;;;;;12.56;68.47;100901.09;146622;599;46013;-77
2023/04/10 02:33:49;;;;;;;;;13.75;12.50;;;;;12.48;68.67;100892.06;146615;634;46010;-79
2023/04/10 02:36:54;;;;;;;;;17.75;13.00;;;;;12.36;68.81;100891.47;146617;577;46012;-78
2023/04/10 02:39:46;;;;;;;;;14.00;12.50;;;;;12.27;68.36;100893.66;146622;593;46010;-79
2023/04/10 02:42:50;;;;;;;;;11.00;11.00;;;;;12.25;68.01;100898.78;146610;617;46014;-79
2023/04/10 02:45:45;;;;;;;;;15.75;14.00;;;;;12.25;68.34;100901.37;146619;579;46015;-78
2023/04/10 02:48:56;;;;;;;;;;;;;;;;;;;;;
2023/04/10 02:51:50;;;;;;;;;13.75;11.50;;;;;12.23;69.83;100893.50;146619;573;45014;-80
2023/04/10 02:54:49;;;;;;;;;16.50;13.75;;;;;12.16;70.63;100901.84;146617;569;45034;-79
2023/04/10 02:57:56;;;;;;;;;;;;;;;;;;;;;
2023/04/10 03:00:53;;;;;;;;;13.25;12.25;;;;;12.09;69.49;100906.69;146613;596;46013;-80
2023/04/10 03:03:51;;;;;;;;;14.75;13.00;;;;;12.15;69.78;100912.16;146612;569;45020;-80
2023/04/10 03:06:43;;;;;;;;;14.25;12.50;;;;;12.21;69.80;100917.63;146611;565;46012;-81
2023/04/10 03:09:38;;;;;;;;;17.00;13.00;;;;;12.22;69.47;100915.13;146615;579;45024;-75
2023/04/10 03:12:34;;;;;;;;;17.50;15.25;;;;;12.25;68.80;100912.69;146611;572;46012;-76
2023/04/10 03:15:26;;;;;;;;;18.25;15.25;;;;;12.33;69.65;100917.34;146614;570;46010;-77
2023/04/10 03:18:22;;;;;;;;;18.75;17.75;;;;;12.35;68.41;100921.78;146614;575;46012;-79
2023/04/10 03:21:20;;;;;;;;;19.75;16.75;;;;;12.38;69.25;100913.25;146618;619;45020;-78
2023/04/10 03:24:12;;;;;;;;;18.50;16.00;;;;;12.41;68.91;100919.47;146614;618;46918;-77
2023/04/10 03:27:27;;;;;;;;;16.25;14.25;;;;;9.39;66.99;100429.03;146613;727;46010;-79
2023/04/10 03:30:32;;;;;;;;;18.00;15.00;;;;;12.36;68.37;100926.16;146614;566;46012;-79
2023/04/10 03:33:30;;;;;;;;;11.50;11.00;;;;;12.33;68.24;100920.81;146607;618;46020;-77
2023/04/10 03:36:26;;;;;;;;;14.75;12.50;;;;;12.30;69.17;100925.00;146617;631;46016;-81
2023/04/10 03:39:20;;;;;;;;;13.25;11.75;;;;;12.24;69.99;100918.69;146612;573;46022;-85
2023/04/10 03:42:16;;;;;;;;;13.00;12.00;;;;;12.21;69.54;100923.75;146615;569;45016;-84
2023/04/10 03:45:39;;;;;;;;;16.00;14.00;;;;;12.20;68.51;100921.06;146616;669;46918;-82
2023/04/10 03:48:53;;;;;;;;;5.75;4.75;;;;;12.20;68.58;100924.56;146619;694;45016;-83
2023/04/10 03:51:59;;;;;;;;;6.00;5.00;;;;;12.18;70.32;100925.28;146617;617;46020;-78
2023/04/10 03:54:53;;;;;;;;;4.75;4.00;;;;;12.15;71.44;100925.16;146621;621;45016;-78
2023/04/10 03:58:04;;;;;;;;;4.75;4.75;;;;;12.12;70.41;100931.13;146623;563;46010;-77
2023/04/10 04:00:56;;;;;;;;;4.00;4.00;;;;;12.10;74.27;100937.94;146616;570;46012;-74
2023/04/10 04:03:49;;;;;;;;;3.00;3.00;;;;;12.02;74.45;100939.25;146618;570;46020;-73
2023/04/10 04:06:44;;;;;;;;;5.00;4.00;;;;;11.93;75.98;100944.00;146613;564;46013;-73
2023/04/10 04:09:54;;;;;;;;;5.50;3.00;;;;;11.79;76.58;100945.91;146624;598;46014;-77
2023/04/10 04:13:18;;;;;;;;;4.75;2.75;;;;;8.55;77.30;100408.25;146617;606;46012;-78
2023/04/10 04:16:19;;;;;;;;;3.00;2.50;;;;;11.54;79.38;100955.06;146620;584;46010;-78
2023/04/10 04:19:20;;;;;;;;;2.00;2.00;;;;;11.39;79.51;100959.47;146622;680;45016;-81
2023/04/10 04:22:20;;;;;;;;;3.25;3.25;;;;;11.30;80.01;100956.38;146626;569;46014;-77
2023/04/10 04:25:24;;;;;;;;;6.25;5.00;;;;;11.24;79.19;100953.47;146622;594;45016;-79
2023/04/10 04:28:19;;;;;;;;;5.00;4.50;;;;;11.23;80.70;100954.28;146624;583;46010;-78
2023/04/10 04:31:28;;;;;;;;;4.00;4.00;;;;;11.17;82.68;100959.16;146617;581;46016;-78
2023/04/10 04:34:35;;;;;;;;;5.50;4.25;;;;;11.09;80.46;100951.87;146618;602;45020;-79
2023/04/10 04:37:30;;;;;;;;;5.00;5.00;;;;;11.13;80.12;100944.25;146619;583;46017;-79
2023/04/10 04:40:28;;;;;;;;;4.25;4.25;;;;;11.19;80.76;100952.37;146628;615;45020;-80
2023/04/10 04:43:34;;;;;;;;;8.25;6.50;;;;;11.20;80.33;100946.34;146618;595;48016;-78
2023/04/10 04:46:29;;;;;;;;;3.25;2.50;;;;;11.20;80.55;100956.72;146622;572;47014;-78
2023/04/10 04:49:34;;;;;;;;;5.00;3.75;;;;;11.14;81.06;100951.22;146622;603;46014;-73
2023/04/10 04:52:45;;;;;;;;;6.25;5.00;;;;;11.07;81.18;100948.28;146623;564;46021;-74
2023/04/10 04:55:42;;;;;;;;;5.75;5.75;;;;;11.08;81.65;100957.84;146622;648;46012;-73
2023/04/10 04:58:38;;;;;;;;;5.75;5.50;;;;;11.07;82.52;100958.69;146617;638;46015;-76
2023/04/10 05:01:48;;;;;;;;;4.50;2.75;;;;;11.08;80.15;100957.84;146620;588;46012;-78
2023/04/10 05:04:41;;;;;;;;;4.75;4.75;;;;;11.12;79.88;100953.75;146612;596;45020;-76
2023/04/10 05:08:04;;;;;;;;;7.50;4.75;;;;;11.17;81.31;100957.44;146607;573;47916;-75
2023/04/10 05:11:03;;;;;;;;;5.50;4.50;;;;;11.18;81.27;100961.81;146625;580;45020;-75
2023/04/10 05:14:05;;;;;;;;;5.75;4.75;;;;;11.24;79.64;100966.44;146618;569;46013;-75
2023/04/10 05:17:07;;;;;;;;;5.50;4.25;;;;;11.31;80.03;100963.38;146622;614;46010;-75
2023/04/10 05:20:20;;;;;;;;;12.25;11.25;;;;;11.39;79.32;100968.97;146621;583;45016;-80
2023/04/10 05:23:31;;;;;;;;;11.50;10.25;;;;;8.00;77.74;100379.34;146622;591;45021;-74
2023/04/10 05:26:41;;;;;;;;;19.00;15.00;;;;;11.33;77.58;100975.59;146618;639;46012;-73
2023/04/10 05:29:58;;;;;;;;;15.00;14.00;;;;;7.97;75.45;100391.22;146619;600;46011;-73
2023/04/10 05:32:56;;;;;;;;;19.50;14.50;;;;;11.34;78.82;100973.94;146618;692;45016;-74
2023/04/10 05:35:53;;;;;;;;;17.75;14.00;;;;;11.38;79.89;100978.47;146611;584;46010;-73
2023/04/10 05:38:53;;;;;;;;;15.50;14.25;;;;;11.41;79.25;100981.22;146613;600;47012;-74
2023/04/10 05:41:47;;;;;;;;;19.50;18.00;;;;;11.47;79.28;100981.53;146627;618;47010;-74
2023/04/10 05:44:43;;;;;;;;;22.25;18.00;;;;;11.53;79.82;100994.84;146628;565;46009;-74
2023/04/10 05:47:42;;;;;;;;;19.00;15.50;;;;;11.55;79.28;100994.91;146629;588;45020;-74
2023/04/10 05:50:44;;;;;;;;;18.00;15.00;;;;;11.55;80.27;100990.59;146627;603;45016;-73
2023/04/10 05:53:49;;;;;;;;;20.25;13.50;;;;;8.63;79.40;100483.66;146631;609;45010;-74
2023/04/10 05:56:59;;;;;;;;;21.00;16.00;;;;;11.57;81.74;101001.97;146626;589;46012;-73
2023/04/10 05:59:54;;;;;;;;;18.75;15.25;;;;;11.54;81.51;101000.91;146631;665;45021;-73
2023/04/10 06:02:55;;;;;;;;;18.75;16.00;;;;;11.53;81.81;101000.03;146627;566;45016;-73
2023/04/10 06:05:50;;;;;;;;;19.50;18.00;;;;;11.52;82.33;101000.81;146627;585;46011;-73
2023/04/10 06:08:46;;;;;;;;;18.50;16.75;;;;;11.52;82.56;100995.63;146631;640;46012;-73
2023/04/10 06:11:48;;;;;;;;;20.00;18.50;;;;;11.54;81.08;100998.31;146632;603;45025;-73
2023/04/10 06:14:49;;;;;;;;;21.50;17.75;;;;;10.86;80.71;100878.00;146631;584;45016;-74
2023/04/10 06:17:55;;;;;;;;;22.50;20.75;;;;;11.64;81.05;100997.97;146628;609;45020;-73
2023/04/10 06:20:56;;;;;;;;;24.75;22.00;;;;;11.70;80.93;100987.88;146630;564;45016;-74
2023/04/10 06:24:06;;;;;;;;;23.00;19.00;;;;;11.76;79.43;100984.72;146633;611;45010;-74
2023/04/10 06:26:59;;;;;;;;;26.25;23.50;;;;;11.86;80.24;100988.69;146631;588;45016;-74
2023/04/10 06:30:12;;;;;;;;;29.00;25.25;;;;;11.94;80.11;100985.69;146632;603;45010;-73
2023/04/10 06:33:13;;;;;;;;;39.50;33.00;;;;;12.05;81.55;100983.59;146631;630;45020;-73
2023/04/10 06:36:19;;;;;;;;;36.00;32.50;;;;;12.10;80.54;100994.22;146627;591;46010;-72
2023/04/10 06:39:16;;;;;;;;;34.00;29.25;;;;;12.11;80.47;100991.69;146620;584;46014;-73
2023/04/10 06:42:19;;;;;;;;;32.50;28.50;;;;;12.15;79.58;100993.66;146620;579;46010;-73
2023/04/10 06:45:21;;;;;;;;;33.50;28.25;;;;;12.22;78.97;100993.13;146618;609;46014;-72
2023/04/10 06:48:19;;;;;;;;;26.50;23.50;;;;;12.29;79.01;100996.03;146621;640;47020;-72
2023/04/10 06:51:28;;;;;;;;;30.25;23.00;;;;;12.34;78.39;101000.63;146623;590;46014;-73
2023/04/10 06:54:27;;;;;;;;;26.50;23.75;;;;;12.39;77.71;100995.63;146618;601;46010;-73
2023/04/10 06:57:29;;;;;;;;;24.50;22.25;;;;;12.42;77.76;101001.88;146625;653;45017;-73
2023/04/10 07:00:28;;;;;;;;;25.75;21.25;;;;;12.46;78.09;101000.31;146621;582;46014;-73
2023/04/10 07:03:27;;;;;;;;;33.75;29.50;;;;;12.46;77.37;100996.03;146616;615;46017;-72
2023/04/10 07:06:40;;;;;;;;;22.50;19.00;;;;;12.50;76.77;101010.06;146617;604;46010;-72
2023/04/10 07:09:35;;;;;;;;;29.00;24.00;;;;;12.54;77.95;101001.56;146620;647;46012;-73
2023/04/10 07:12:38;;;;;;;;;25.75;21.75;;;;;12.51;77.21;100997.94;146617;588;46010;-72
2023/04/10 07:15:50;;;;;;;;;22.25;21.75;;;;;12.58;77.71;101003.50;146621;628;46012;-72
2023/04/10 07:18:56;;;;;;;;;22.75;20.25;;;;;9.40;77.63;100447.19;146615;700;46021;-72
2023/04/10 07:22:00;;;;;;;;;21.25;17.50;;;;;12.63;77.84;101007.22;146618;608;46014;-74
2023/04/10 07:24:59;;;;;;;;;18.75;16.75;;;;;12.65;77.50;101013.41;146621;711;45031;-74
2023/04/10 07:27:55;;;;;;;;;21.00;17.25;;;;;12.70;78.62;101016.19;146621;591;45016;-72
2023/04/10 07:30:51;;;;;;;;;18.75;16.00;;;;;12.74;77.00;101023.34;146621;686;46010;-74
2023/04/10 07:33:55;;;;;;;;;22.50;19.00;;;;;12.75;77.47;101022.53;146620;583;46012;-74
2023/04/10 07:36:51;;;;;;;;;13.50;12.50;;;;;12.76;76.70;101023.41;146616;564;45020;-73
2023/04/10 07:40:18;;;;;;;;;18.75;16.75;;;;;12.77;73.43;101018.25;146618;628;46012;-73
2023/04/10 07:43:16;;;;;;;;;29.00;22.75;;;;;12.73;75.77;101013.75;146631;596;45022;-73
2023/04/10 07:46:26;;;;;;;;;16.75;15.50;;;;;12.74;75.60;101017.22;146628;579;45016;-74
2023/04/10 07:49:27;;;;;;;;;22.25;18.75;;;;;12.75;73.50;101017.31;146632;641;46010;-74
2023/04/10 07:52:33;;;;;;;;;17.25;15.00;;;;;12.73;74.51;101015.47;146628;563;45016;-72
2023/04/10 07:55:34;;;;;;;;;26.75;22.25;;;;;12.76;76.29;101018.19;146629;601;45021;-73
2023/04/10 07:59:06;;;;;;;;;20.25;16.75;;;;;9.65;73.84;100506.28;146631;606;45016;-72
2023/04/10 08:02:15;;;;;;;;;20.00;19.50;;;;;12.77;76.70;101022.56;146631;585;46010;-73
2023/04/10 08:05:21;;;;;;;;;22.00;18.75;;;;;12.82;77.07;101019.38;146626;636;45012;-72
2023/04/10 08:08:27;;;;;;;;;;;;;;;;;;;;;
2023/04/10 08:11:50;;;;;;;;;20.00;19.00;;;;;12.85;74.16;101016.91;146630;667;45016;-72
2023/04/10 08:14:50;;;;;;;;;18.25;16.25;;;;;12.85;75.76;101018.62;146629;570;46010;-72
2023/04/10 08:17:53;;;;;;;;;15.00;13.75;;;;;12.83;76.99;101012.47;146625;686;46013;-73
2023/04/10 08:20:48;;;;;;;;;19.25;15.50;;;;;12.90;77.11;101011.94;146630;579;46010;-71
2023/04/10 08:23:54;;;;;;;;;12.75;10.50;;;;;12.96;76.17;101020.03;146632;586;46014;-73
2023/04/10 08:26:58;;;;;;;;;13.00;10.75;;;;;12.94;72.79;101001.72;146628;571;45020;-74
2023/04/10 08:29:56;;;;;;;;;17.25;15.00;;;;;12.92;73.61;101015.50;146628;680;45016;-74
2023/04/10 08:33:01;;;;;;;;;13.50;11.50;;;;;12.88;75.42;101011.84;146631;566;45020;-74
2023/04/10 08:36:05;;;;;;;;;14.75;13.00;;;;;12.88;73.77;101006.66;146631;571;45031;-73
2023/04/10 08:39:11;;;;;;;;;17.50;14.75;;;;;12.92;77.03;101007.69;146623;565;45020;-73
2023/04/10 08:42:10;;;;;;;;;20.25;15.00;;;;;12.99;74.59;101006.25;146623;662;45016;-73
2023/04/10 08:45:15;;;;;;;;;18.25;15.25;;;;;13.06;75.38;101003.13;146614;584;46017;-73
2023/04/10 08:48:14;;;;;;;;;10.50;9.50;;;;;13.13;75.45;101007.78;146623;613;46013;-73
2023/04/10 08:51:08;;;;;;;;;15.00;12.25;;;;;13.19;75.22;101010.66;146623;715;45917;-74
2023/04/10 08:54:34;;;;;;;;;11.25;10.50;;;;;13.30;71.85;100998.16;146619;628;46016;-73
2023/04/10 08:57:33;;;;;;;;;10.25;10.25;;;;;13.39;71.90;100999.47;146621;578;45024;-74
2023/04/10 09:00:30;;;;;;;;;21.00;17.50;;;;;13.48;70.17;100990.25;146623;640;45016;-73
2023/04/10 09:03:38;;;;;;;;;16.50;13.25;;;;;13.58;72.86;100992.44;146615;564;46010;-73
2023/04/10 09:06:32;;;;;;;;;9.75;9.50;;;;;13.65;73.04;100991.00;146617;600;46012;-74
2023/04/10 09:09:33;;;;;;;;;11.25;10.00;;;;;13.67;72.87;100974.59;146616;570;46010;-74
2023/04/10 09:12:26;;;;;;;;;11.25;8.00;;;;;13.73;69.09;100981.78;146620;597;46012;-75
2023/04/10 09:15:21;;;;;;;;;14.75;13.50;;;;;13.81;70.92;100978.69;146616;626;46020;-75
2023/04/10 09:19:05;;;;;;;;;10.75;10.75;;;;;10.80;70.95;100430.69;146616;722;46013;-74
2023/04/10 09:22:04;;;;;;;;;10.25;10.00;;;;;14.03;72.14;100979.56;146621;594;45020;-74
2023/04/10 09:25:01;;;;;;;;;12.00;10.00;;;;;14.17;72.41;100972.31;146615;665;45017;-75
2023/04/10 09:28:12;;;;;;;;;10.25;8.25;;;;;14.28;69.00;100971.03;146618;575;46010;-74
2023/04/10 09:31:47;;;;;;;;;;;;;;;;;;;;;
2023/04/10 09:35:10;;;;;;;;;15.75;14.00;;;;;11.32;71.64;100433.00;146618;664;46010;-74
2023/04/10 09:38:19;;;;;;;;;8.50;7.50;;;;;14.40;71.05;100968.03;146613;609;46012;-75
2023/04/10 09:41:22;;;;;;;;;12.25;8.25;;;;;14.46;71.84;100963.94;146615;581;46010;-74
2023/04/10 09:44:19;;;;;;;;;15.25;13.00;;;;;14.61;71.22;100970.59;146620;579;46014;-73
2023/04/10 09:47:28;;;;;;;;;12.75;11.00;;;;;14.68;67.67;100975.25;146619;646;46011;-75
2023/04/10 09:50:21;;;;;;;;;18.25;14.75;;;;;14.72;70.17;100969.31;146617;563;46012;-74
2023/04/10 09:53:20;;;;;;;;;15.00;15.00;;;;;14.73;68.50;100964.12;146616;722;45026;-74
2023/04/10 09:56:12;;;;;;;;;12.00;11.50;;;;;14.79;70.26;100961.75;146611;573;45038;-74
2023/04/10 09:59:24;;;;;;;;;14.25;11.25;;;;;14.77;66.96;100960.81;146618;659;46010;-74
2023/04/10 10:02:21;;;;;;;;;15.25;9.50;;;;;14.79;66.14;100958.25;146617;564;45016;-74
2023/04/10 10:05:21;;;;;;;;;49.25;35.75;;;;;14.86;67.41;100951.53;146616;614;46010;-75
2023/04/10 10:08:35;;;;;;;;;16.50;15.50;;;;;14.85;64.84;100945.44;146608;589;46016;-74
2023/04/10 10:11:32;;;;;;;;;14.50;11.00;;;;;14.85;62.57;100941.94;146607;571;46021;-73
2023/04/10 10:14:34;;;;;;;;;10.50;8.75;;;;;14.77;63.45;100939.94;146613;586;46014;-74
2023/04/10 10:17:54;;;;;;;;;15.75;12.75;;;;;14.76;67.46;100940.75;146614;573;47010;-74
2023/04/10 10:20:57;;;;;;;;;12.75;10.50;;;;;14.75;66.98;100940.72;146611;615;46012;-74
2023/04/10 10:24:03;;;;;;;;;13.00;9.75;;;;;14.81;67.17;100935.72;146613;588;46010;-73
2023/04/10 10:27:19;;;;;;;;;11.50;10.50;;;;;12.04;66.79;100443.84;146615;617;46012;-74
2023/04/10 10:30:36;;;;;;;;;;;;;;;;;;;;;
2023/04/10 10:33:42;;;;;;;;;9.75;8.25;;;;;15.00;59.33;100935.56;146613;564;46017;-72
2023/04/10 10:37:03;;;;;;;;;13.00;9.25;;;;;11.75;61.20;100388.97;146618;575;46010;-72
2023/04/10 10:40:22;;;;;;;;;6.00;5.00;;;;;14.89;64.15;100925.53;146621;580;47014;-73
2023/04/10 10:43:44;;;;;;;;;9.25;8.00;;;;;15.06;64.54;100919.22;146627;566;46010;-72
2023/04/10 10:46:53;;;;;;;;;12.25;12.25;;;;;13.33;63.45;100582.50;146702;569;47012;-72
2023/04/10 10:50:06;;;;;;;;;9.75;9.25;;;;;15.35;63.83;100914.16;146615;621;47012;-73
2023/04/10 10:53:12;;;;;;;;;9.00;9.00;;;;;15.46;64.46;100908.47;146624;719;46010;-72
2023/04/10 10:56:44;;;;;;;;;11.75;8.50;;;;;14.36;63.61;100692.22;146619;567;46016;-72
2023/04/10 11:00:19;;;;;;;;;10.75;9.25;;;;;15.43;62.60;100863.03;146624;658;46010;-72
2023/04/10 11:03:39;;;;;;;;;12.00;11.25;;;;;15.61;62.84;100907.22;146619;617;46014;-73
2023/04/10 11:06:57;;;;;;;;;9.50;9.00;;;;;15.47;63.33;100885.81;146614;708;47010;-72
2023/04/10 11:10:03;;;;;;;;;13.00;9.75;;;;;15.54;63.26;100907.81;146619;622;46012;-72
2023/04/10 11:13:23;;;;;;;;;8.00;8.00;;;;;15.49;62.38;100910.28;146622;637;46020;-72
2023/04/10 11:16:17;;;;;;;;;5.50;5.00;;;;;15.37;61.96;100907.25;146616;644;47014;-73
2023/04/10 11:19:24;;;;;;;;;9.75;8.00;;;;;15.19;60.26;100895.31;146623;600;46020;-72
2023/04/10 11:22:32;;;;;;;;;6.50;6.25;;;;;13.73;61.92;100672.56;146619;582;46017;-72
2023/04/10 11:25:46;;;;;;;;;10.50;7.50;;;;;14.91;62.36;100897.78;146621;628;46020;-72
2023/04/10 11:28:43;;;;;;;;;7.75;6.75;;;;;14.75;61.15;100905.03;146616;571;47874;-72
2023/04/10 11:31:46;;;;;;;;;6.50;6.00;;;;;14.58;62.33;100895.72;146624;606;46010;-75
2023/04/10 11:34:58;;;;;;;;;7.25;6.00;;;;;14.50;63.33;100897.97;146612;637;47918;-72
2023/04/10 11:38:11;;;;;;;;;8.25;7.75;;;;;14.46;63.89;100900.44;146620;673;47020;-72
2023/04/10 11:41:14;;;;;;;;;9.50;7.25;;;;;14.42;64.21;100901.13;146620;682;46016;-73
2023/04/10 11:44:23;;;;;;;;;5.75;4.75;;;;;14.41;64.25;100910.69;146623;578;46013;-72
2023/04/10 11:47:40;;;;;;;;;10.75;8.25;;;;;14.38;64.90;100900.12;146625;604;46016;-73
2023/04/10 11:51:31;;;;;;;;;8.50;7.75;;;;;13.31;65.96;100743.00;146627;698;46020;-72
2023/04/10 11:54:32;;;;;;;;;6.75;6.75;;;;;14.10;65.08;100904.25;146624;573;46014;-73
2023/04/10 11:57:28;;;;;;;;;8.25;7.00;;;;;13.96;65.08;100902.84;146629;593;46020;-72
2023/04/10 12:00:34;;;;;;;;;7.50;6.75;;;;;13.85;64.74;100899.78;146622;566;47014;-72
2023/04/10 12:04:01;;;;;;;;;6.25;5.00;;;;;12.55;64.05;100678.22;146628;584;46020;-72
2023/04/10 12:07:14;;;;;;;;;4.00;4.00;;;;;12.51;64.28;100670.22;146620;572;47017;-72
2023/04/10 12:10:14;;;;;;;;;6.00;6.00;;;;;13.82;66.65;100896.16;146631;588;46010;-71
2023/04/10 12:13:14;;;;;;;;;10.25;6.50;;;;;13.76;67.96;100899.41;146621;565;47015;-73
2023/04/10 12:16:23;;;;;;;;;10.50;8.00;;;;;13.77;70.60;100896.00;146628;563;46020;-72
2023/04/10 12:19:23;;;;;;;;;7.75;6.25;;;;;13.79;69.97;100891.72;146623;646;46016;-72
2023/04/10 12:22:27;;;;;;;;;7.00;6.75;;;;;13.84;69.90;100890.19;146632;716;46010;-73
2023/04/10 12:25:40;;;;;;;;;8.75;7.75;;;;;13.83;69.39;100880.59;146622;569;47016;-73
2023/04/10 12:28:34;;;;;;;;;20.75;15.00;;;;;13.92;69.77;100884.37;146628;571;46020;-72
2023/04/10 12:31:55;;;;;;;;;9.00;7.50;;;;;14.04;68.70;100875.34;146620;652;46014;-73
2023/04/10 12:35:07;;;;;;;;;7.75;7.50;;;;;14.29;68.18;100876.28;146628;610;46012;-73
2023/04/10 12:38:29;;;;;;;;;9.00;6.50;;;;;14.52;67.90;100866.78;146623;680;47017;-73
2023/04/10 12:41:45;;;;;;;;;9.00;6.50;;;;;14.72;66.36;100859.69;146625;616;46021;-73
2023/04/10 12:44:59;;;;;;;;;8.50;6.75;;;;;14.84;66.19;100852.28;146622;668;46039;-73
2023/04/10 12:48:11;;;;;;;;;10.00;7.00;;;;;14.89;66.19;100842.91;146622;709;46020;-73
2023/04/10 12:51:06;;;;;;;;;8.25;7.25;;;;;15.09;65.86;100854.06;146617;694;46915;-73
2023/04/10 12:54:00;;;;;;;;;15.00;10.50;;;;;15.30;65.03;100853.03;146625;591;45021;-72
2023/04/10 12:56:55;;;;;;;;;4.00;4.00;;;;;15.44;63.77;100844.78;146614;632;46033;-73
2023/04/10 12:59:51;;;;;;;;;12.00;10.25;;;;;15.46;63.50;100835.28;146621;604;46021;-73
2023/04/10 13:03:07;;;;;;;;;6.50;5.75;;;;;15.44;59.53;100841.28;146613;655;46016;-73
2023/04/10 13:06:02;;;;;;;;;7.50;7.00;;;;;15.43;62.75;100829.09;146621;622;46020;-74
2023/04/10 13:09:09;;;;;;;;;8.25;7.25;;;;;15.50;61.79;100833.66;146619;575;46016;-72
2023/04/10 13:12:05;;;;;;;;;5.25;5.00;;;;;15.45;61.94;100830.00;146619;576;47019;-72
2023/04/10 13:15:00;;;;;;;;;8.25;6.00;;;;;15.32;61.92;100833.94;146615;603;47012;-72
2023/04/10 13:18:01;;;;;;;;;6.25;6.25;;;;;15.38;63.10;100826.28;146623;708;46020;-75
2023/04/10 13:21:21;;;;;;;;;4.75;4.25;;;;;14.64;60.80;100668.91;146617;581;46017;-74
2023/04/10 13:24:20;;;;;;;;;6.25;5.75;;;;;15.52;59.55;100818.03;146622;636;46020;-73
2023/04/10 13:28:01;;;;;;;;;8.00;6.75;;;;;14.98;60.98;100730.03;146619;676;46017;-74
2023/04/10 13:30:53;;;;;;;;;3.50;3.50;;;;;15.49;61.32;100813.59;146624;570;46020;-73
2023/04/10 13:33:54;;;;;;;;;9.50;6.50;;;;;15.50;61.09;100812.75;146617;563;47012;-73
2023/04/10 13:36:52;;;;;;;;;4.50;4.00;;;;;15.54;59.83;100813.75;146618;574;47021;-74
2023/04/10 13:39:48;;;;;;;;;5.75;5.75;;;;;15.54;59.20;100808.50;146618;642;46016;-72
2023/04/10 13:42:51;;;;;;;;;9.00;8.75;;;;;15.57;59.23;100806.87;146622;577;46021;-75
2023/04/10 13:45:45;;;;;;;;;6.50;6.25;;;;;15.59;59.17;100805.22;146620;655;46012;-72
2023/04/10 13:48:49;;;;;;;;;7.00;6.75;;;;;15.64;59.54;100811.50;146621;611;46020;-74
2023/04/10 13:51:45;;;;;;;;;8.25;7.00;;;;;15.68;59.44;100808.16;146618;592;46015;-72
2023/04/10 13:54:39;;;;;;;;;3.75;3.00;;;;;15.71;56.95;100804.75;146624;575;46010;-73
2023/04/10 13:57:33;;;;;;;;;4.75;4.00;;;;;15.66;57.49;100796.72;146618;569;46016;-74
2023/04/10 14:00:26;;;;;;;;;7.25;5.75;;;;;15.82;57.39;100807.69;146622;597;46020;-74
2023/04/10 14:03:18;;;;;;;;;5.75;4.00;;;;;15.90;54.67;100801.88;146620;580;46016;-71
2023/04/10 14:06:11;;;;;;;;;3.75;3.00;;;;;15.91;55.31;100803.63;146622;581;46021;-74
2023/04/10 14:09:13;;;;;;;;;3.25;2.25;;;;;15.94;52.99;100802.84;146618;569;46016;-74
2023/04/10 14:12:09;;;;;;;;;5.00;3.00;;;;;15.92;53.77;100804.56;146623;564;47010;-72
2023/04/10 14:15:04;;;;;;;;;4.00;4.00;;;;;15.82;54.46;100802.47;146618;592;46919;-77
2023/04/10 14:17:58;;;;;;;;;2.25;1.25;;;;;15.66;54.33;100809.78;146619;565;46020;-73
2023/04/10 14:20:52;;;;;;;;;3.00;2.75;;;;;15.43;52.29;100802.94;146618;610;46017;-73
2023/04/10 14:23:45;;;;;;;;;6.00;6.00;;;;;15.31;55.81;100797.31;146619;573;46020;-71